createdAt,value
2018-10-16T00:00:15.774Z,29.23
2018-10-16T00:02:45.656Z,28.37
2018-10-16T00:05:15.613Z,30.37
2018-10-16T00:07:44.893Z,30.00
2018-10-16T00:10:18.375Z,30.00
2018-10-16T00:12:48.044Z,30.23
2018-10-16T00:15:17.394Z,30.57
2018-10-16T00:17:46.687Z,31.30
2018-10-16T00:20:15.969Z,31.03
2018-10-16T00:22:45.981Z,31.27
2018-10-16T00:25:16.994Z,31.27
2018-10-16T00:27:46.506Z,31.87
2018-10-16T00:30:15.850Z,31.50
2018-10-16T00:32:45.228Z,31.77
2018-10-16T00:35:14.667Z,32.90
2018-10-16T00:37:44.153Z,32.50
2018-10-16T00:40:14.102Z,32.60
2018-10-16T00:42:43.405Z,31.33
2018-10-16T00:45:13.069Z,32.57
2018-10-16T00:47:42.375Z,31.83
2018-10-16T00:50:11.688Z,31.70
2018-10-16T00:52:40.998Z,33.37
2018-10-16T00:55:10.886Z,33.30
2018-10-16T00:57:40.936Z,32.33
2018-10-16T01:00:11.828Z,32.07
2018-10-16T01:02:42.061Z,31.60
2018-10-16T01:05:12.403Z,32.23
2018-10-16T01:07:42.411Z,33.63
2018-10-16T01:10:12.618Z,31.87
2018-10-16T01:12:42.226Z,32.07
2018-10-16T01:15:12.389Z,32.50
2018-10-16T01:17:41.964Z,32.60
2018-10-16T01:20:12.904Z,32.97
2018-10-16T01:22:42.828Z,31.87
2018-10-16T01:25:13.458Z,32.07
2018-10-16T01:27:42.905Z,33.13
2018-10-16T01:30:12.187Z,32.53
2018-10-16T01:32:41.498Z,32.37
2018-10-16T01:35:12.127Z,33.00
2018-10-16T01:37:41.775Z,31.13
2018-10-16T01:40:11.612Z,32.87
2018-10-16T01:42:41.002Z,33.00
2018-10-16T01:45:11.025Z,29.80
2018-10-16T01:47:41.038Z,31.53
2018-10-16T01:50:10.404Z,32.03
2018-10-16T01:52:39.661Z,32.87
2018-10-16T01:55:08.983Z,32.40
2018-10-16T01:57:38.438Z,32.40
2018-10-16T02:00:09.418Z,31.90
2018-10-16T02:02:39.025Z,32.27
2018-10-16T02:05:08.612Z,31.87
2018-10-16T02:07:37.980Z,31.90
2018-10-16T02:10:07.987Z,31.83
2018-10-16T02:12:38.366Z,31.67
2018-10-16T02:15:08.599Z,29.50
2018-10-16T02:17:38.715Z,31.30
2018-10-16T02:20:08.632Z,31.73
2018-10-16T02:22:38.845Z,31.10
2018-10-16T02:25:09.196Z,30.00
2018-10-16T02:27:38.889Z,30.50
2018-10-16T02:30:08.590Z,30.83
2018-10-16T02:32:37.901Z,29.23
2018-10-16T02:35:08.233Z,29.73
2018-10-16T02:37:37.524Z,31.07
2018-10-16T02:40:07.813Z,28.43
2018-10-16T02:42:37.178Z,30.20
2018-10-16T02:45:07.415Z,30.10
2018-10-16T02:47:36.768Z,29.87
2018-10-16T02:50:06.478Z,29.73
2018-10-16T02:52:35.734Z,30.33
2018-10-16T02:55:05.792Z,29.77
2018-10-16T02:57:35.152Z,30.20
2018-10-16T03:00:04.684Z,30.47
2018-10-16T03:02:34.112Z,29.77
2018-10-16T03:05:03.456Z,28.60
2018-10-16T03:07:32.877Z,30.30
2018-10-16T03:10:02.138Z,31.87
2018-10-16T03:12:31.551Z,31.20
2018-10-16T03:15:01.406Z,31.77
2018-10-16T03:17:30.705Z,31.37
2018-10-16T03:19:59.970Z,31.70
2018-10-16T03:22:29.222Z,32.17
2018-10-16T03:24:58.457Z,30.73
2018-10-16T03:27:27.754Z,31.93
2018-10-16T03:29:57.003Z,32.07
2018-10-16T03:32:26.322Z,32.93
2018-10-16T03:34:55.728Z,32.90
2018-10-16T03:37:25.037Z,32.17
2018-10-16T03:39:54.492Z,32.43
2018-10-16T03:42:23.752Z,32.90
2018-10-16T03:44:53.004Z,32.57
2018-10-16T03:47:22.380Z,32.93
2018-10-16T03:49:51.676Z,34.73
2018-10-16T03:52:21.014Z,35.03
2018-10-16T03:54:50.414Z,34.13
2018-10-16T03:57:21.273Z,33.80
2018-10-16T03:59:50.558Z,35.07
2018-10-16T04:02:19.894Z,36.17
2018-10-16T04:04:49.166Z,33.30
2018-10-16T04:07:18.424Z,34.83
2018-10-16T04:09:48.213Z,34.70
2018-10-16T04:12:17.526Z,34.47
2018-10-16T04:14:46.844Z,34.50
2018-10-16T04:17:16.132Z,33.73
2018-10-16T04:19:45.393Z,32.97
2018-10-16T04:22:14.673Z,35.43
2018-10-16T04:24:44.032Z,34.10
2018-10-16T04:27:13.289Z,33.77
2018-10-16T04:29:42.532Z,33.53
2018-10-16T04:32:11.864Z,33.90
2018-10-16T04:34:41.210Z,32.93
2018-10-16T04:37:11.279Z,35.37
2018-10-16T04:39:40.635Z,33.53
2018-10-16T04:42:10.022Z,33.23
2018-10-16T04:44:39.305Z,33.70
2018-10-16T04:47:08.566Z,33.50
2018-10-16T04:49:37.868Z,34.23
2018-10-16T04:52:07.144Z,33.23
2018-10-16T04:54:36.526Z,33.53
2018-10-16T04:57:05.805Z,33.17
2018-10-16T04:59:35.093Z,32.73
2018-10-16T05:02:04.408Z,34.00
2018-10-16T05:04:33.715Z,33.43
2018-10-16T05:07:03.103Z,33.20
2018-10-16T05:09:33.300Z,35.23
2018-10-16T05:12:02.681Z,36.53
2018-10-16T05:14:31.943Z,35.80
2018-10-16T05:17:01.965Z,35.33
2018-10-16T05:19:31.244Z,37.43
2018-10-16T05:22:00.761Z,34.67
2018-10-16T05:24:30.052Z,36.40
2018-10-16T05:26:59.361Z,36.47
2018-10-16T05:29:28.836Z,36.40
2018-10-16T05:31:58.274Z,35.37
2018-10-16T05:34:27.573Z,36.03
2018-10-16T05:36:56.872Z,34.67
2018-10-16T05:39:26.133Z,36.47
2018-10-16T05:41:55.408Z,36.20
2018-10-16T05:44:24.777Z,35.87
2018-10-16T05:46:54.162Z,36.13
2018-10-16T05:49:23.491Z,37.43
2018-10-16T05:51:52.754Z,35.07
2018-10-16T05:54:22.091Z,34.90
2018-10-16T05:56:51.352Z,36.43
2018-10-16T05:59:20.681Z,36.20
2018-10-16T06:01:49.955Z,34.33
2018-10-16T06:04:19.271Z,36.27
2018-10-16T06:06:48.530Z,37.67
2018-10-16T06:09:18.562Z,36.63
2018-10-16T06:11:47.870Z,37.00
2018-10-16T06:14:17.130Z,35.83
2018-10-16T06:16:46.395Z,35.43
2018-10-16T06:19:15.675Z,35.70
2018-10-16T06:21:45.072Z,34.70
2018-10-16T06:24:14.401Z,35.83
2018-10-16T06:26:44.292Z,34.70
2018-10-16T06:29:13.595Z,36.20
2018-10-16T06:31:43.033Z,35.53
2018-10-16T06:34:12.392Z,35.57
2018-10-16T06:36:41.780Z,34.93
2018-10-16T06:39:11.692Z,36.57
2018-10-16T06:41:41.027Z,36.00
2018-10-16T06:44:10.426Z,33.13
2018-10-16T06:46:39.845Z,36.10
2018-10-16T06:49:09.104Z,36.47
2018-10-16T06:51:38.451Z,36.23
2018-10-16T06:54:07.725Z,37.07
2018-10-16T06:56:37.229Z,33.93
2018-10-16T06:59:06.535Z,32.80
2018-10-16T07:01:35.912Z,35.37
2018-10-16T07:04:05.650Z,34.27
2018-10-16T07:06:35.296Z,34.03
2018-10-16T07:09:05.835Z,34.77
2018-10-16T07:11:37.218Z,33.77
2018-10-16T07:14:10.899Z,33.43
2018-10-16T07:16:40.293Z,33.70
2018-10-16T07:19:10.415Z,33.20
2018-10-16T07:21:40.140Z,32.37
2018-10-16T07:24:09.632Z,31.97
2018-10-16T07:26:38.936Z,33.73
2018-10-16T07:29:08.839Z,32.57
2018-10-16T07:31:38.310Z,32.10
2018-10-16T07:34:07.600Z,32.53
2018-10-16T07:36:36.914Z,33.37
2018-10-16T07:39:09.054Z,33.13
2018-10-16T07:41:39.271Z,32.70
2018-10-16T07:44:08.837Z,32.17
2018-10-16T07:46:38.170Z,32.17
2018-10-16T07:49:08.371Z,32.60
2018-10-16T07:51:38.260Z,32.77
2018-10-16T07:54:07.568Z,33.50
2018-10-16T07:56:36.884Z,31.60
2018-10-16T07:59:06.164Z,31.20
2018-10-16T08:01:35.417Z,31.90
2018-10-16T08:04:05.247Z,32.97
2018-10-16T08:06:34.542Z,31.97
2018-10-16T08:09:04.323Z,31.33
2018-10-16T08:11:33.783Z,31.70
2018-10-16T08:14:02.945Z,32.37
2018-10-16T08:16:32.251Z,31.93
2018-10-16T08:19:02.234Z,30.63
2018-10-16T08:21:31.676Z,31.33
2018-10-16T08:24:00.986Z,30.33
2018-10-16T08:26:31.713Z,31.47
2018-10-16T08:29:01.001Z,30.87
2018-10-16T08:31:30.685Z,29.93
2018-10-16T08:34:00.020Z,32.27
2018-10-16T08:36:29.441Z,32.33
2018-10-16T08:39:11.557Z,30.63
2018-10-16T08:42:21.325Z,30.03
2018-10-16T08:45:27.491Z,28.50
2018-10-16T08:48:07.883Z,28.07
2018-10-16T08:50:49.276Z,26.40
2018-10-16T08:53:19.563Z,26.40
2018-10-16T08:55:48.827Z,24.63
2018-10-16T08:58:18.108Z,24.30
2018-10-16T09:00:47.472Z,25.77
2018-10-16T09:03:16.862Z,26.13
2018-10-16T09:05:47.138Z,27.53
2018-10-16T09:08:16.490Z,27.40
2018-10-16T09:10:46.019Z,27.37
2018-10-16T09:13:15.391Z,28.00
2018-10-16T09:15:44.635Z,28.43
2018-10-16T09:18:13.895Z,29.23
2018-10-16T09:20:43.209Z,27.23
2018-10-16T09:23:12.530Z,26.57
2018-10-16T09:25:41.835Z,25.67
2018-10-16T09:28:11.822Z,26.45
2018-10-16T09:30:42.188Z,25.65
2018-10-16T09:33:11.461Z,24.95
2018-10-16T09:35:40.866Z,25.52
2018-10-16T09:38:10.194Z,25.97
2018-10-16T09:40:39.469Z,24.37
2018-10-16T09:43:08.795Z,28.10
2018-10-16T09:45:38.068Z,25.52
2018-10-16T09:48:07.330Z,25.25
2018-10-16T09:50:36.728Z,24.18
2018-10-16T09:53:06.764Z,23.07
2018-10-16T09:55:36.031Z,22.77
2018-10-16T09:58:05.396Z,21.15
2018-10-16T10:00:40.038Z,20.75
2018-10-16T10:03:09.369Z,21.17
2018-10-16T10:05:38.752Z,18.35
2018-10-16T10:08:08.873Z,18.73
2018-10-16T10:10:38.201Z,19.23
2018-10-16T10:13:07.663Z,19.12
2018-10-16T10:15:37.135Z,20.05
2018-10-16T10:18:06.522Z,19.55
2018-10-16T10:20:36.064Z,19.80
2018-10-16T10:23:05.808Z,19.82
2018-10-16T10:25:35.195Z,20.70
2018-10-16T10:28:04.572Z,16.07
2018-10-16T10:30:33.845Z,15.32
2018-10-16T10:33:03.146Z,12.78
2018-10-16T10:35:33.331Z,14.55
2018-10-16T10:38:09.317Z,14.03
2018-10-16T10:40:38.691Z,13.98
2018-10-16T10:43:08.149Z,14.23
2018-10-16T10:45:37.467Z,13.75
2018-10-16T10:48:07.021Z,14.47
2018-10-16T10:50:36.538Z,14.20
2018-10-16T10:53:05.613Z,14.50
2018-10-16T10:55:34.884Z,14.18
2018-10-16T10:58:04.191Z,14.75
2018-10-16T11:00:33.486Z,14.05
2018-10-16T11:03:02.914Z,15.15
2018-10-16T11:05:32.145Z,15.13
2018-10-16T11:08:01.516Z,14.15
2018-10-16T11:10:30.836Z,13.68
2018-10-16T11:13:00.113Z,18.32
2018-10-16T11:15:29.394Z,18.52
2018-10-16T11:17:59.449Z,18.25
2018-10-16T11:20:28.797Z,17.65
2018-10-16T11:22:58.199Z,15.98
2018-10-16T11:25:27.466Z,16.40
2018-10-16T11:27:56.815Z,16.90
2018-10-16T11:30:26.239Z,16.65
2018-10-16T11:32:55.556Z,18.17
2018-10-16T11:35:24.878Z,19.32
2018-10-16T11:37:54.181Z,19.62
2018-10-16T11:40:23.451Z,19.80
2018-10-16T11:42:52.761Z,19.67
2018-10-16T11:45:22.096Z,17.48
2018-10-16T11:47:51.598Z,17.85
2018-10-16T11:50:20.943Z,18.48
2018-10-16T11:52:51.009Z,16.37
2018-10-16T11:55:21.029Z,16.05
2018-10-16T11:57:50.425Z,15.98
2018-10-16T12:00:19.940Z,15.10
2018-10-16T12:02:49.393Z,18.45
2018-10-16T12:05:18.928Z,14.60
2018-10-16T12:07:48.197Z,14.10
2018-10-16T12:10:17.489Z,15.70
2018-10-16T12:12:46.874Z,13.60
2018-10-16T12:15:16.462Z,13.53
2018-10-16T12:17:50.923Z,12.78
2018-10-16T12:20:25.070Z,12.28
2018-10-16T12:22:54.482Z,11.68
2018-10-16T12:25:24.524Z,12.50
2018-10-16T12:27:54.036Z,12.95
2018-10-16T12:30:24.583Z,15.40
2018-10-16T12:32:54.067Z,14.33
2018-10-16T12:35:23.473Z,13.48
2018-10-16T12:37:52.883Z,12.45
2018-10-16T12:40:22.255Z,11.85
2018-10-16T12:42:51.626Z,10.45
2018-10-16T12:45:21.171Z,10.55
2018-10-16T12:47:51.187Z,9.90
2018-10-16T12:50:20.620Z,9.95
2018-10-16T12:52:51.382Z,9.95
2018-10-16T12:55:20.616Z,10.03
2018-10-16T12:57:50.704Z,9.28
2018-10-16T13:00:20.370Z,9.05
2018-10-16T13:02:49.646Z,8.75
2018-10-16T13:05:18.944Z,8.08
2018-10-16T13:07:48.460Z,7.83
2018-10-16T13:10:18.847Z,6.58
2018-10-16T13:12:48.495Z,12.35
2018-10-16T13:15:17.808Z,14.87
2018-10-16T13:17:47.088Z,8.00
2018-10-16T13:20:17.297Z,12.60
2018-10-16T13:22:47.895Z,8.88
2018-10-16T13:25:17.398Z,9.98
2018-10-16T13:27:46.806Z,6.87
2018-10-16T13:30:17.592Z,7.20
2018-10-16T13:32:48.000Z,7.78
2018-10-16T13:35:19.196Z,7.20
2018-10-16T13:37:48.936Z,11.25
2018-10-16T13:40:18.748Z,17.85
2018-10-16T13:42:48.067Z,15.75
2018-10-16T13:45:17.875Z,10.80
2018-10-16T13:47:47.332Z,8.20
2018-10-16T13:50:17.492Z,6.72
2018-10-16T13:52:47.335Z,6.95
2018-10-16T13:55:16.614Z,6.47
2018-10-16T13:57:45.971Z,6.80
2018-10-16T14:00:16.483Z,7.70
2018-10-16T14:02:47.333Z,7.12
2018-10-16T14:05:16.693Z,7.30
2018-10-16T14:07:46.048Z,30.02
2018-10-16T14:10:16.288Z,7.37
2018-10-16T14:12:46.754Z,6.65
2018-10-16T14:15:16.688Z,6.97
2018-10-16T14:17:47.372Z,7.90
2018-10-16T14:20:16.995Z,10.65
2018-10-16T14:22:46.247Z,7.22
2018-10-16T14:25:16.341Z,8.70
2018-10-16T14:27:45.888Z,10.30
2018-10-16T14:30:16.195Z,7.47
2018-10-16T14:32:45.654Z,7.67
2018-10-16T14:35:15.184Z,7.40
2018-10-16T14:37:44.463Z,8.73
2018-10-16T14:40:15.225Z,8.95
2018-10-16T14:42:44.713Z,13.13
2018-10-16T14:45:14.542Z,10.43
2018-10-16T14:47:43.817Z,8.67
2018-10-16T14:50:14.280Z,7.17
2018-10-16T14:52:43.583Z,8.97
2018-10-16T14:55:12.873Z,6.97
2018-10-16T14:57:43.036Z,7.20
2018-10-16T15:00:13.289Z,7.17
2018-10-16T15:02:42.570Z,8.50
2018-10-16T15:05:12.537Z,10.57
2018-10-16T15:07:42.558Z,11.23
2018-10-16T15:10:11.921Z,12.03
2018-10-16T15:12:41.288Z,7.70
2018-10-16T15:15:10.693Z,9.63
2018-10-16T15:17:40.161Z,7.00
2018-10-16T15:20:10.574Z,7.90
2018-10-16T15:22:39.780Z,8.93
2018-10-16T15:25:09.767Z,7.67
2018-10-16T15:27:39.130Z,9.20
2018-10-16T15:30:09.681Z,10.57
2018-10-16T15:32:39.101Z,13.43
2018-10-16T15:35:09.881Z,18.90
2018-10-16T15:37:39.479Z,18.93
2018-10-16T15:40:10.558Z,22.67
2018-10-16T15:42:40.468Z,21.43
2018-10-16T15:45:12.207Z,13.20
2018-10-16T15:47:42.103Z,15.83
2018-10-16T15:50:12.050Z,19.07
2018-10-16T15:52:41.305Z,14.83
2018-10-16T15:55:11.676Z,13.53
2018-10-16T15:57:40.984Z,13.50
2018-10-16T16:00:14.203Z,13.20
2018-10-16T16:02:43.440Z,13.67
2018-10-16T16:05:12.858Z,23.70
2018-10-16T16:07:42.216Z,18.87
2018-10-16T16:10:13.988Z,48.40
2018-10-16T16:12:43.270Z,20.10
2018-10-16T16:15:13.347Z,16.57
2018-10-16T16:17:43.959Z,17.13
2018-10-16T16:20:14.712Z,16.67
2018-10-16T16:22:44.313Z,12.77
2018-10-16T16:25:14.919Z,14.40
2018-10-16T16:27:44.330Z,18.63
2018-10-16T16:30:15.339Z,20.10
2018-10-16T16:32:44.798Z,10.50
2018-10-16T16:35:14.152Z,11.03
2018-10-16T16:37:44.819Z,10.83
2018-10-16T16:40:15.446Z,10.33
2018-10-16T16:42:44.718Z,9.80
2018-10-16T16:45:14.222Z,10.97
2018-10-16T16:47:43.647Z,11.10
2018-10-16T16:50:13.202Z,11.40
2018-10-16T16:52:42.994Z,14.87
2018-10-16T16:55:16.073Z,28.90
2018-10-16T16:57:45.677Z,28.97
2018-10-16T17:00:15.503Z,16.87
2018-10-16T17:02:45.755Z,20.60
2018-10-16T17:05:15.424Z,16.70
2018-10-16T17:07:45.095Z,15.83
2018-10-16T17:10:14.421Z,20.10
2018-10-16T17:12:44.058Z,21.40
2018-10-16T17:15:14.774Z,19.43
2018-10-16T17:17:50.883Z,20.07
2018-10-16T17:20:20.036Z,16.97
2018-10-16T17:22:49.321Z,14.87
2018-10-16T17:25:18.665Z,14.47
2018-10-16T17:27:47.988Z,16.93
2018-10-16T17:30:17.604Z,17.60
2018-10-16T17:32:46.894Z,16.30
2018-10-16T17:35:16.262Z,16.30
2018-10-16T17:37:45.616Z,15.90
2018-10-16T17:40:16.304Z,15.80
2018-10-16T17:42:45.816Z,14.77
2018-10-16T17:45:16.255Z,15.10
2018-10-16T17:47:45.702Z,16.00
2018-10-16T17:50:17.199Z,18.03
2018-10-16T17:52:46.617Z,15.83
2018-10-16T17:55:16.984Z,14.87
2018-10-16T17:57:46.431Z,14.50
2018-10-16T18:00:16.967Z,15.00
2018-10-16T18:02:46.560Z,16.67
2018-10-16T18:05:16.323Z,14.03
2018-10-16T18:07:45.995Z,15.10
2018-10-16T18:10:15.343Z,13.20
2018-10-16T18:12:45.864Z,13.53
2018-10-16T18:15:15.648Z,13.87
2018-10-16T18:17:44.954Z,13.80
2018-10-16T18:20:16.038Z,15.37
2018-10-16T18:22:46.004Z,15.67
2018-10-16T18:25:15.470Z,16.67
2018-10-16T18:27:45.673Z,18.00
2018-10-16T18:30:14.987Z,17.63
2018-10-16T18:32:44.463Z,18.43
2018-10-16T18:35:13.823Z,18.83
2018-10-16T18:37:43.923Z,19.27
2018-10-16T18:40:14.085Z,19.60
2018-10-16T18:42:43.419Z,20.07
2018-10-16T18:45:14.044Z,19.43
2018-10-16T18:47:43.244Z,20.33
2018-10-16T18:50:13.933Z,20.07
2018-10-16T18:52:44.244Z,21.00
2018-10-16T18:55:14.492Z,21.03
2018-10-16T18:57:43.843Z,22.97
2018-10-16T19:00:16.197Z,24.43
2018-10-16T19:02:45.937Z,24.97
2018-10-16T19:05:15.283Z,23.97
2018-10-16T19:07:44.771Z,21.87
2018-10-16T19:10:14.639Z,22.43
2018-10-16T19:12:43.993Z,23.47
2018-10-16T19:15:14.910Z,23.03
2018-10-16T19:17:44.980Z,21.47
2018-10-16T19:20:16.039Z,22.17
2018-10-16T19:22:46.449Z,22.10
2018-10-16T19:25:17.825Z,22.97
2018-10-16T19:27:47.292Z,22.73
2018-10-16T19:30:17.206Z,23.60
2018-10-16T19:32:46.581Z,23.30
2018-10-16T19:35:16.183Z,23.60
2018-10-16T19:37:45.538Z,23.33
2018-10-16T19:40:14.864Z,20.07
2018-10-16T19:42:44.952Z,17.20
2018-10-16T19:45:14.451Z,16.40
2018-10-16T19:47:43.657Z,16.53
2018-10-16T19:50:12.966Z,15.93
2018-10-16T19:52:42.354Z,15.67
2018-10-16T19:55:11.708Z,15.77
2018-10-16T19:57:40.996Z,16.33
2018-10-16T20:00:10.929Z,17.93
2018-10-16T20:02:40.186Z,19.37
2018-10-16T20:05:09.844Z,19.50
2018-10-16T20:07:39.192Z,21.03
2018-10-16T20:10:09.912Z,21.23
2018-10-16T20:12:39.378Z,20.87
2018-10-16T20:15:11.166Z,20.83
2018-10-16T20:17:40.576Z,21.40
2018-10-16T20:20:11.947Z,19.13
2018-10-16T20:22:41.698Z,20.20
2018-10-16T20:25:11.765Z,19.20
2018-10-16T20:27:41.033Z,18.77
2018-10-16T20:30:11.264Z,18.47
2018-10-16T20:32:41.916Z,17.63
2018-10-16T20:35:11.434Z,18.07
2018-10-16T20:37:40.740Z,17.83
2018-10-16T20:40:10.042Z,18.33
2018-10-16T20:42:39.356Z,18.07
2018-10-16T20:45:08.793Z,18.60
2018-10-16T20:47:38.672Z,18.43
2018-10-16T20:50:08.021Z,19.50
2018-10-16T20:52:37.627Z,18.43
2018-10-16T20:55:07.234Z,20.27
2018-10-16T20:57:36.858Z,20.30
2018-10-16T21:00:07.010Z,21.23
2018-10-16T21:02:37.406Z,20.87
2018-10-16T21:05:08.118Z,21.00
2018-10-16T21:07:37.244Z,22.03
2018-10-16T21:10:07.387Z,20.97
2018-10-16T21:12:36.827Z,22.23
2018-10-16T21:15:07.245Z,22.33
2018-10-16T21:17:36.560Z,23.63
2018-10-16T21:20:07.022Z,22.80
2018-10-16T21:22:36.405Z,23.33
2018-10-16T21:25:06.347Z,23.30
2018-10-16T21:27:35.629Z,24.43
2018-10-16T21:30:05.452Z,23.33
2018-10-16T21:32:34.915Z,23.70
2018-10-16T21:35:04.697Z,22.53
2018-10-16T21:37:33.931Z,24.07
2018-10-16T21:40:03.233Z,24.83
2018-10-16T21:42:32.677Z,24.10
2018-10-16T21:45:02.136Z,23.33
2018-10-16T21:47:31.476Z,24.10
2018-10-16T21:50:01.491Z,22.83
2018-10-16T21:52:30.803Z,23.60
2018-10-16T21:55:00.153Z,24.17
2018-10-16T21:57:29.457Z,23.40
2018-10-16T21:59:58.806Z,23.57
2018-10-16T22:02:34.168Z,23.20
2018-10-16T22:05:03.495Z,23.20
2018-10-16T22:07:32.746Z,23.83
2018-10-16T22:10:02.688Z,23.90
2018-10-16T22:12:31.996Z,22.63
2018-10-16T22:15:01.305Z,23.30
2018-10-16T22:17:30.619Z,23.47
2018-10-16T22:20:00.353Z,22.90
2018-10-16T22:22:29.716Z,23.70
2018-10-16T22:24:59.052Z,23.57
2018-10-16T22:27:28.336Z,22.73
2018-10-16T22:29:57.709Z,22.23
2018-10-16T22:32:26.992Z,22.43
2018-10-16T22:34:56.638Z,21.93
2018-10-16T22:37:25.932Z,21.53
2018-10-16T22:39:55.193Z,21.87
2018-10-16T22:42:24.478Z,21.90
2018-10-16T22:44:53.745Z,22.60
2018-10-16T22:47:23.061Z,22.80
2018-10-16T22:49:52.393Z,21.97
2018-10-16T22:52:21.838Z,22.00
2018-10-16T22:54:51.292Z,23.10
2018-10-16T22:57:20.571Z,24.13
2018-10-16T22:59:49.829Z,23.83
2018-10-16T23:02:19.135Z,24.70
2018-10-16T23:04:48.434Z,24.23
2018-10-16T23:07:17.732Z,23.97
2018-10-16T23:09:47.167Z,24.33
2018-10-16T23:12:16.547Z,24.27
2018-10-16T23:14:45.906Z,22.97
2018-10-16T23:17:15.231Z,23.37
2018-10-16T23:19:44.543Z,21.87
2018-10-16T23:22:13.812Z,21.53
2018-10-16T23:24:43.142Z,21.23
2018-10-16T23:27:12.436Z,20.60
2018-10-16T23:29:41.704Z,21.60
2018-10-16T23:32:10.980Z,20.47
2018-10-16T23:34:40.391Z,20.20
2018-10-16T23:37:09.747Z,20.90
2018-10-16T23:39:41.924Z,21.03
2018-10-16T23:42:11.415Z,20.80
2018-10-16T23:44:40.662Z,20.70
2018-10-16T23:47:10.002Z,20.77
2018-10-16T23:49:39.203Z,21.40
2018-10-16T23:52:08.480Z,21.50
2018-10-16T23:54:37.781Z,20.60
2018-10-16T23:57:07.109Z,22.37
2018-10-16T23:59:36.431Z,22.83
